sensor_id;sensor_type;location;lat;lon;timestamp;temperature;humidity
15578;DHT22;17667;45.598;5.214;2023-05-10T00:01:45;15.40;93.50
15578;DHT22;17667;45.598;5.214;2023-05-10T00:04:33;15.40;94.20
15578;DHT22;17667;45.598;5.214;2023-05-10T00:07:20;15.40;93.20
15578;DHT22;17667;45.598;5.214;2023-05-10T00:10:08;15.30;94.30
15578;DHT22;17667;45.598;5.214;2023-05-10T00:12:56;15.20;93.90
15578;DHT22;17667;45.598;5.214;2023-05-10T00:15:44;15.20;94.00
15578;DHT22;17667;45.598;5.214;2023-05-10T00:18:32;15.10;94.50
15578;DHT22;17667;45.598;5.214;2023-05-10T00:21:23;15.10;95.40
15578;DHT22;17667;45.598;5.214;2023-05-10T00:24:10;15.00;93.40
15578;DHT22;17667;45.598;5.214;2023-05-10T00:26:58;15.00;93.90
15578;DHT22;17667;45.598;5.214;2023-05-10T00:29:46;15.00;94.70
15578;DHT22;17667;45.598;5.214;2023-05-10T00:32:34;15.00;93.90
15578;DHT22;17667;45.598;5.214;2023-05-10T00:35:24;15.00;94.00
15578;DHT22;17667;45.598;5.214;2023-05-10T00:38:12;15.00;94.60
15578;DHT22;17667;45.598;5.214;2023-05-10T00:41:00;15.00;94.40
15578;DHT22;17667;45.598;5.214;2023-05-10T00:43:50;14.90;93.70
15578;DHT22;17667;45.598;5.214;2023-05-10T00:46:38;14.90;94.20
15578;DHT22;17667;45.598;5.214;2023-05-10T00:49:26;14.90;94.50
15578;DHT22;17667;45.598;5.214;2023-05-10T00:52:15;14.90;94.50
15578;DHT22;17667;45.598;5.214;2023-05-10T00:55:04;14.90;93.80
15578;DHT22;17667;45.598;5.214;2023-05-10T00:57:52;14.90;95.50
15578;DHT22;17667;45.598;5.214;2023-05-10T01:00:41;14.90;95.10
15578;DHT22;17667;45.598;5.214;2023-05-10T01:03:29;15.00;96.10
15578;DHT22;17667;45.598;5.214;2023-05-10T01:06:18;15.00;95.30
15578;DHT22;17667;45.598;5.214;2023-05-10T01:09:07;15.00;94.80
15578;DHT22;17667;45.598;5.214;2023-05-10T01:11:54;15.10;94.60
15578;DHT22;17667;45.598;5.214;2023-05-10T01:14:43;15.00;94.40
15578;DHT22;17667;45.598;5.214;2023-05-10T01:17:31;15.00;93.90
15578;DHT22;17667;45.598;5.214;2023-05-10T01:20:20;15.00;93.70
15578;DHT22;17667;45.598;5.214;2023-05-10T01:23:23;15.00;93.90
15578;DHT22;17667;45.598;5.214;2023-05-10T01:26:44;15.00;93.20
15578;DHT22;17667;45.598;5.214;2023-05-10T01:30:05;14.90;93.20
15578;DHT22;17667;45.598;5.214;2023-05-10T01:33:09;14.90;93.40
15578;DHT22;17667;45.598;5.214;2023-05-10T01:36:03;14.90;93.60
15578;DHT22;17667;45.598;5.214;2023-05-10T01:38:58;14.80;94.20
15578;DHT22;17667;45.598;5.214;2023-05-10T01:41:52;14.80;93.30
15578;DHT22;17667;45.598;5.214;2023-05-10T01:44:56;14.70;94.00
15578;DHT22;17667;45.598;5.214;2023-05-10T01:47:48;14.70;94.50
15578;DHT22;17667;45.598;5.214;2023-05-10T01:50:43;14.60;93.40
15578;DHT22;17667;45.598;5.214;2023-05-10T01:53:31;14.50;95.10
15578;DHT22;17667;45.598;5.214;2023-05-10T01:56:23;14.50;94.80
15578;DHT22;17667;45.598;5.214;2023-05-10T01:59:15;14.50;94.50
15578;DHT22;17667;45.598;5.214;2023-05-10T02:02:05;14.50;94.40
15578;DHT22;17667;45.598;5.214;2023-05-10T02:04:53;14.50;96.50
15578;DHT22;17667;45.598;5.214;2023-05-10T02:07:44;14.50;95.60
15578;DHT22;17667;45.598;5.214;2023-05-10T02:10:32;14.50;95.40
15578;DHT22;17667;45.598;5.214;2023-05-10T02:13:21;14.50;95.10
15578;DHT22;17667;45.598;5.214;2023-05-10T02:16:11;14.60;95.80
15578;DHT22;17667;45.598;5.214;2023-05-10T02:19:01;14.50;94.30
15578;DHT22;17667;45.598;5.214;2023-05-10T02:21:50;14.50;94.40
15578;DHT22;17667;45.598;5.214;2023-05-10T02:24:39;14.50;93.80
15578;DHT22;17667;45.598;5.214;2023-05-10T02:27:27;14.50;94.00
15578;DHT22;17667;45.598;5.214;2023-05-10T02:30:16;14.50;93.90
15578;DHT22;17667;45.598;5.214;2023-05-10T02:33:05;14.50;94.10
15578;DHT22;17667;45.598;5.214;2023-05-10T02:35:53;14.50;93.90
15578;DHT22;17667;45.598;5.214;2023-05-10T02:38:42;14.50;94.10
15578;DHT22;17667;45.598;5.214;2023-05-10T02:41:32;14.50;95.00
15578;DHT22;17667;45.598;5.214;2023-05-10T02:44:21;14.40;93.80
15578;DHT22;17667;45.598;5.214;2023-05-10T02:47:10;14.40;94.60
15578;DHT22;17667;45.598;5.214;2023-05-10T02:49:58;14.40;93.80
15578;DHT22;17667;45.598;5.214;2023-05-10T02:52:47;14.40;94.20
15578;DHT22;17667;45.598;5.214;2023-05-10T02:55:40;14.40;94.10
15578;DHT22;17667;45.598;5.214;2023-05-10T02:58:30;14.40;95.10
15578;DHT22;17667;45.598;5.214;2023-05-10T03:01:17;14.40;94.10
15578;DHT22;17667;45.598;5.214;2023-05-10T03:04:05;14.40;95.00
15578;DHT22;17667;45.598;5.214;2023-05-10T03:06:53;14.40;94.40
15578;DHT22;17667;45.598;5.214;2023-05-10T03:09:41;14.40;95.00
15578;DHT22;17667;45.598;5.214;2023-05-10T03:12:36;14.40;95.20
15578;DHT22;17667;45.598;5.214;2023-05-10T03:15:33;14.40;95.10
15578;DHT22;17667;45.598;5.214;2023-05-10T03:18:41;14.30;95.10
15578;DHT22;17667;45.598;5.214;2023-05-10T03:21:30;14.30;94.80
15578;DHT22;17667;45.598;5.214;2023-05-10T03:24:22;14.30;96.20
15578;DHT22;17667;45.598;5.214;2023-05-10T03:27:10;14.30;95.30
15578;DHT22;17667;45.598;5.214;2023-05-10T03:29:59;14.30;95.00
15578;DHT22;17667;45.598;5.214;2023-05-10T03:32:50;14.30;95.20
15578;DHT22;17667;45.598;5.214;2023-05-10T03:35:38;14.30;95.10
15578;DHT22;17667;45.598;5.214;2023-05-10T03:38:25;14.30;95.20
15578;DHT22;17667;45.598;5.214;2023-05-10T03:41:14;14.30;94.90
15578;DHT22;17667;45.598;5.214;2023-05-10T03:44:02;14.30;95.50
15578;DHT22;17667;45.598;5.214;2023-05-10T03:46:49;14.20;94.50
15578;DHT22;17667;45.598;5.214;2023-05-10T03:49:38;14.20;94.30
15578;DHT22;17667;45.598;5.214;2023-05-10T03:52:26;14.20;94.70
15578;DHT22;17667;45.598;5.214;2023-05-10T03:55:14;14.20;94.50
15578;DHT22;17667;45.598;5.214;2023-05-10T03:58:02;14.20;94.90
15578;DHT22;17667;45.598;5.214;2023-05-10T04:00:52;14.10;94.40
15578;DHT22;17667;45.598;5.214;2023-05-10T04:03:39;14.10;94.40
15578;DHT22;17667;45.598;5.214;2023-05-10T04:06:28;14.20;94.80
15578;DHT22;17667;45.598;5.214;2023-05-10T04:09:17;14.20;94.90
15578;DHT22;17667;45.598;5.214;2023-05-10T04:12:05;14.20;95.30
15578;DHT22;17667;45.598;5.214;2023-05-10T04:14:54;14.20;95.50
15578;DHT22;17667;45.598;5.214;2023-05-10T04:17:41;14.10;94.70
15578;DHT22;17667;45.598;5.214;2023-05-10T04:20:29;14.10;95.00
15578;DHT22;17667;45.598;5.214;2023-05-10T04:23:20;14.10;94.90
15578;DHT22;17667;45.598;5.214;2023-05-10T04:26:08;14.10;95.30
15578;DHT22;17667;45.598;5.214;2023-05-10T04:28:55;14.00;95.70
15578;DHT22;17667;45.598;5.214;2023-05-10T04:31:43;14.00;95.20
15578;DHT22;17667;45.598;5.214;2023-05-10T04:34:30;14.10;95.10
15578;DHT22;17667;45.598;5.214;2023-05-10T04:37:20;14.10;94.50
15578;DHT22;17667;45.598;5.214;2023-05-10T04:40:11;14.00;94.50
15578;DHT22;17667;45.598;5.214;2023-05-10T04:42:59;14.00;94.80
15578;DHT22;17667;45.598;5.214;2023-05-10T04:45:47;14.10;95.50
15578;DHT22;17667;45.598;5.214;2023-05-10T04:48:36;14.00;94.80
15578;DHT22;17667;45.598;5.214;2023-05-10T04:51:24;14.00;95.00
15578;DHT22;17667;45.598;5.214;2023-05-10T04:54:11;14.00;96.00
15578;DHT22;17667;45.598;5.214;2023-05-10T04:57:01;14.00;95.40
15578;DHT22;17667;45.598;5.214;2023-05-10T04:59:48;14.00;95.90
15578;DHT22;17667;45.598;5.214;2023-05-10T05:02:36;13.90;95.70
15578;DHT22;17667;45.598;5.214;2023-05-10T05:05:23;13.90;95.40
15578;DHT22;17667;45.598;5.214;2023-05-10T05:08:11;13.90;95.30
15578;DHT22;17667;45.598;5.214;2023-05-10T05:10:59;13.90;95.40
15578;DHT22;17667;45.598;5.214;2023-05-10T05:13:48;13.90;95.70
15578;DHT22;17667;45.598;5.214;2023-05-10T05:16:35;13.90;95.40
15578;DHT22;17667;45.598;5.214;2023-05-10T05:19:23;13.90;95.30
15578;DHT22;17667;45.598;5.214;2023-05-10T05:22:11;13.90;95.20
15578;DHT22;17667;45.598;5.214;2023-05-10T05:24:59;14.00;95.60
15578;DHT22;17667;45.598;5.214;2023-05-10T05:27:48;14.00;95.80
15578;DHT22;17667;45.598;5.214;2023-05-10T05:30:37;14.00;95.10
15578;DHT22;17667;45.598;5.214;2023-05-10T05:33:25;14.00;95.20
15578;DHT22;17667;45.598;5.214;2023-05-10T05:36:12;14.00;95.10
15578;DHT22;17667;45.598;5.214;2023-05-10T05:39:00;14.00;95.40
15578;DHT22;17667;45.598;5.214;2023-05-10T05:41:48;14.10;94.90
15578;DHT22;17667;45.598;5.214;2023-05-10T05:44:35;14.10;95.20
15578;DHT22;17667;45.598;5.214;2023-05-10T05:47:24;14.20;94.80
15578;DHT22;17667;45.598;5.214;2023-05-10T05:50:12;14.20;95.00
15578;DHT22;17667;45.598;5.214;2023-05-10T05:52:59;14.20;94.70
15578;DHT22;17667;45.598;5.214;2023-05-10T05:55:54;14.20;94.70
15578;DHT22;17667;45.598;5.214;2023-05-10T05:58:42;14.20;95.10
15578;DHT22;17667;45.598;5.214;2023-05-10T06:01:30;14.20;94.40
15578;DHT22;17667;45.598;5.214;2023-05-10T06:04:19;14.20;94.40
15578;DHT22;17667;45.598;5.214;2023-05-10T06:07:07;14.20;94.30
15578;DHT22;17667;45.598;5.214;2023-05-10T06:09:55;14.20;93.60
15578;DHT22;17667;45.598;5.214;2023-05-10T06:12:42;14.10;93.80
15578;DHT22;17667;45.598;5.214;2023-05-10T06:15:30;14.10;93.90
15578;DHT22;17667;45.598;5.214;2023-05-10T06:18:18;14.20;93.90
15578;DHT22;17667;45.598;5.214;2023-05-10T06:21:07;14.20;93.70
15578;DHT22;17667;45.598;5.214;2023-05-10T06:23:55;14.20;93.70
15578;DHT22;17667;45.598;5.214;2023-05-10T06:26:43;14.30;93.70
15578;DHT22;17667;45.598;5.214;2023-05-10T06:29:30;14.20;93.20
15578;DHT22;17667;45.598;5.214;2023-05-10T06:32:18;14.20;93.10
15578;DHT22;17667;45.598;5.214;2023-05-10T06:35:07;14.10;92.80
15578;DHT22;17667;45.598;5.214;2023-05-10T06:37:56;14.10;93.10
15578;DHT22;17667;45.598;5.214;2023-05-10T06:40:43;14.00;93.00
15578;DHT22;17667;45.598;5.214;2023-05-10T06:43:31;14.00;93.00
15578;DHT22;17667;45.598;5.214;2023-05-10T06:46:19;14.00;93.10
15578;DHT22;17667;45.598;5.214;2023-05-10T06:49:06;14.10;93.10
15578;DHT22;17667;45.598;5.214;2023-05-10T06:51:55;14.10;93.00
15578;DHT22;17667;45.598;5.214;2023-05-10T06:54:44;14.10;92.90
15578;DHT22;17667;45.598;5.214;2023-05-10T06:57:31;14.20;93.00
15578;DHT22;17667;45.598;5.214;2023-05-10T07:00:19;14.30;93.00
15578;DHT22;17667;45.598;5.214;2023-05-10T07:03:07;14.40;92.80
15578;DHT22;17667;45.598;5.214;2023-05-10T07:06:00;14.50;92.80
15578;DHT22;17667;45.598;5.214;2023-05-10T07:08:49;14.50;92.60
15578;DHT22;17667;45.598;5.214;2023-05-10T07:11:38;14.50;92.70
15578;DHT22;17667;45.598;5.214;2023-05-10T07:14:25;14.60;92.30
15578;DHT22;17667;45.598;5.214;2023-05-10T07:17:13;14.60;92.40
15578;DHT22;17667;45.598;5.214;2023-05-10T07:20:01;14.60;92.30
15578;DHT22;17667;45.598;5.214;2023-05-10T07:22:49;14.60;92.30
15578;DHT22;17667;45.598;5.214;2023-05-10T07:25:37;14.70;92.40
15578;DHT22;17667;45.598;5.214;2023-05-10T07:28:26;14.80;92.10
15578;DHT22;17667;45.598;5.214;2023-05-10T07:31:13;14.90;92.20
15578;DHT22;17667;45.598;5.214;2023-05-10T07:34:01;15.00;92.00
15578;DHT22;17667;45.598;5.214;2023-05-10T07:36:49;15.00;91.60
15578;DHT22;17667;45.598;5.214;2023-05-10T07:39:36;15.10;91.50
15578;DHT22;17667;45.598;5.214;2023-05-10T07:42:24;15.20;91.10
15578;DHT22;17667;45.598;5.214;2023-05-10T07:45:13;15.20;91.50
15578;DHT22;17667;45.598;5.214;2023-05-10T07:48:01;15.30;91.20
15578;DHT22;17667;45.598;5.214;2023-05-10T07:50:50;15.40;91.30
15578;DHT22;17667;45.598;5.214;2023-05-10T07:53:38;15.50;91.00
15578;DHT22;17667;45.598;5.214;2023-05-10T07:56:27;15.60;91.10
15578;DHT22;17667;45.598;5.214;2023-05-10T07:59:17;15.80;91.30
15578;DHT22;17667;45.598;5.214;2023-05-10T08:02:06;15.80;90.60
15578;DHT22;17667;45.598;5.214;2023-05-10T08:04:53;15.90;90.60
15578;DHT22;17667;45.598;5.214;2023-05-10T08:07:41;16.10;90.40
15578;DHT22;17667;45.598;5.214;2023-05-10T08:10:29;16.30;90.10
15578;DHT22;17667;45.598;5.214;2023-05-10T08:13:17;16.80;90.40
15578;DHT22;17667;45.598;5.214;2023-05-10T08:16:05;17.30;88.80
15578;DHT22;17667;45.598;5.214;2023-05-10T08:18:54;17.50;87.70
15578;DHT22;17667;45.598;5.214;2023-05-10T08:21:42;17.60;87.30
15578;DHT22;17667;45.598;5.214;2023-05-10T08:24:30;17.60;85.70
15578;DHT22;17667;45.598;5.214;2023-05-10T08:27:18;17.50;86.40
15578;DHT22;17667;45.598;5.214;2023-05-10T08:30:07;17.50;86.40
15578;DHT22;17667;45.598;5.214;2023-05-10T08:32:55;17.50;85.80
15578;DHT22;17667;45.598;5.214;2023-05-10T08:35:44;17.50;87.10
15578;DHT22;17667;45.598;5.214;2023-05-10T08:38:31;17.40;86.20
15578;DHT22;17667;45.598;5.214;2023-05-10T08:41:20;17.40;85.90
15578;DHT22;17667;45.598;5.214;2023-05-10T08:44:08;17.30;86.00
15578;DHT22;17667;45.598;5.214;2023-05-10T08:46:57;17.30;85.40
15578;DHT22;17667;45.598;5.214;2023-05-10T08:49:47;17.30;86.90
15578;DHT22;17667;45.598;5.214;2023-05-10T08:52:38;17.30;85.50
15578;DHT22;17667;45.598;5.214;2023-05-10T08:55:27;17.40;87.50
15578;DHT22;17667;45.598;5.214;2023-05-10T08:58:16;17.40;86.80
15578;DHT22;17667;45.598;5.214;2023-05-10T09:01:05;17.40;87.30
15578;DHT22;17667;45.598;5.214;2023-05-10T09:03:53;17.50;87.40
15578;DHT22;17667;45.598;5.214;2023-05-10T09:06:41;17.50;84.80
15578;DHT22;17667;45.598;5.214;2023-05-10T09:09:31;17.60;86.80
15578;DHT22;17667;45.598;5.214;2023-05-10T09:12:18;17.90;86.20
15578;DHT22;17667;45.598;5.214;2023-05-10T09:15:07;18.00;82.20
15578;DHT22;17667;45.598;5.214;2023-05-10T09:17:56;18.00;84.40
15578;DHT22;17667;45.598;5.214;2023-05-10T09:20:45;19.00;83.50
15578;DHT22;17667;45.598;5.214;2023-05-10T09:23:33;19.40;80.90
15578;DHT22;17667;45.598;5.214;2023-05-10T09:26:23;19.40;78.90
15578;DHT22;17667;45.598;5.214;2023-05-10T09:29:11;19.80;80.50
15578;DHT22;17667;45.598;5.214;2023-05-10T09:32:00;20.60;77.30
15578;DHT22;17667;45.598;5.214;2023-05-10T09:34:49;21.00;74.40
15578;DHT22;17667;45.598;5.214;2023-05-10T09:37:38;20.80;75.40
15578;DHT22;17667;45.598;5.214;2023-05-10T09:40:29;20.50;74.20
15578;DHT22;17667;45.598;5.214;2023-05-10T09:43:18;20.30;75.30
15578;DHT22;17667;45.598;5.214;2023-05-10T09:46:09;19.80;74.20
15578;DHT22;17667;45.598;5.214;2023-05-10T09:48:57;19.50;77.50
15578;DHT22;17667;45.598;5.214;2023-05-10T09:51:45;19.30;78.60
15578;DHT22;17667;45.598;5.214;2023-05-10T09:54:33;19.20;79.80
15578;DHT22;17667;45.598;5.214;2023-05-10T09:57:21;19.00;81.30
15578;DHT22;17667;45.598;5.214;2023-05-10T10:00:17;18.80;79.40
15578;DHT22;17667;45.598;5.214;2023-05-10T10:03:05;18.60;80.40
15578;DHT22;17667;45.598;5.214;2023-05-10T10:05:54;18.40;80.30
15578;DHT22;17667;45.598;5.214;2023-05-10T10:08:42;18.20;81.20
15578;DHT22;17667;45.598;5.214;2023-05-10T10:11:30;18.30;81.70
15578;DHT22;17667;45.598;5.214;2023-05-10T10:14:18;18.30;81.90
15578;DHT22;17667;45.598;5.214;2023-05-10T10:17:07;18.40;81.40
15578;DHT22;17667;45.598;5.214;2023-05-10T10:19:57;18.50;82.70
15578;DHT22;17667;45.598;5.214;2023-05-10T10:22:45;18.70;82.00
15578;DHT22;17667;45.598;5.214;2023-05-10T10:25:33;18.80;80.60
15578;DHT22;17667;45.598;5.214;2023-05-10T10:28:30;19.30;81.10
15578;DHT22;17667;45.598;5.214;2023-05-10T10:31:27;20.10;79.00
15578;DHT22;17667;45.598;5.214;2023-05-10T10:34:26;20.60;75.40
15578;DHT22;17667;45.598;5.214;2023-05-10T10:37:15;20.90;76.70
15578;DHT22;17667;45.598;5.214;2023-05-10T10:40:22;21.50;74.80
15578;DHT22;17667;45.598;5.214;2023-05-10T10:43:23;22.70;71.10
15578;DHT22;17667;45.598;5.214;2023-05-10T10:46:12;22.30;71.40
15578;DHT22;17667;45.598;5.214;2023-05-10T10:49:09;22.30;72.40
15578;DHT22;17667;45.598;5.214;2023-05-10T10:52:22;22.80;71.40
15578;DHT22;17667;45.598;5.214;2023-05-10T10:55:14;23.60;70.60
15578;DHT22;17667;45.598;5.214;2023-05-10T10:58:03;23.30;69.40
15578;DHT22;17667;45.598;5.214;2023-05-10T11:01:09;24.70;69.20
15578;DHT22;17667;45.598;5.214;2023-05-10T11:04:16;25.20;66.30
15578;DHT22;17667;45.598;5.214;2023-05-10T11:07:23;25.40;65.30
15578;DHT22;17667;45.598;5.214;2023-05-10T11:10:11;24.90;64.40
15578;DHT22;17667;45.598;5.214;2023-05-10T11:13:00;24.20;63.90
15578;DHT22;17667;45.598;5.214;2023-05-10T11:15:48;23.60;66.30
15578;DHT22;17667;45.598;5.214;2023-05-10T11:18:37;23.20;65.50
15578;DHT22;17667;45.598;5.214;2023-05-10T11:21:24;22.90;68.40
15578;DHT22;17667;45.598;5.214;2023-05-10T11:24:15;22.30;68.30
15578;DHT22;17667;45.598;5.214;2023-05-10T11:27:03;21.90;70.30
15578;DHT22;17667;45.598;5.214;2023-05-10T11:29:51;21.90;69.30
15578;DHT22;17667;45.598;5.214;2023-05-10T11:32:40;22.00;70.40
15578;DHT22;17667;45.598;5.214;2023-05-10T11:35:27;21.90;67.60
15578;DHT22;17667;45.598;5.214;2023-05-10T11:38:15;21.70;69.60
15578;DHT22;17667;45.598;5.214;2023-05-10T11:41:04;22.10;68.80
15578;DHT22;17667;45.598;5.214;2023-05-10T11:43:53;22.90;68.00
15578;DHT22;17667;45.598;5.214;2023-05-10T11:46:41;24.20;68.00
15578;DHT22;17667;45.598;5.214;2023-05-10T11:49:29;24.80;64.00
15578;DHT22;17667;45.598;5.214;2023-05-10T11:52:18;24.70;63.90
15578;DHT22;17667;45.598;5.214;2023-05-10T11:55:07;24.40;60.60
15578;DHT22;17667;45.598;5.214;2023-05-10T11:58:00;24.00;63.00
15578;DHT22;17667;45.598;5.214;2023-05-10T12:00:48;23.40;61.40
15578;DHT22;17667;45.598;5.214;2023-05-10T12:03:36;22.90;64.60
15578;DHT22;17667;45.598;5.214;2023-05-10T12:06:26;22.80;65.70
15578;DHT22;17667;45.598;5.214;2023-05-10T12:09:14;23.20;61.80
15578;DHT22;17667;45.598;5.214;2023-05-10T12:12:03;23.00;64.20
15578;DHT22;17667;45.598;5.214;2023-05-10T12:14:52;22.70;64.30
15578;DHT22;17667;45.598;5.214;2023-05-10T12:17:39;22.40;63.60
15578;DHT22;17667;45.598;5.214;2023-05-10T12:20:28;22.30;62.60
15578;DHT22;17667;45.598;5.214;2023-05-10T12:23:16;22.40;64.40
15578;DHT22;17667;45.598;5.214;2023-05-10T12:26:04;23.90;65.30
15578;DHT22;17667;45.598;5.214;2023-05-10T12:28:52;25.60;63.90
15578;DHT22;17667;45.598;5.214;2023-05-10T12:31:55;27.10;61.00
15578;DHT22;17667;45.598;5.214;2023-05-10T12:34:43;27.30;58.80
15578;DHT22;17667;45.598;5.214;2023-05-10T12:37:34;27.00;57.00
15578;DHT22;17667;45.598;5.214;2023-05-10T12:40:24;26.50;57.50
15578;DHT22;17667;45.598;5.214;2023-05-10T12:43:12;26.30;60.10
15578;DHT22;17667;45.598;5.214;2023-05-10T12:46:05;26.10;59.00
15578;DHT22;17667;45.598;5.214;2023-05-10T12:48:53;25.60;59.40
15578;DHT22;17667;45.598;5.214;2023-05-10T12:51:48;25.20;58.30
15578;DHT22;17667;45.598;5.214;2023-05-10T12:54:36;24.90;60.70
15578;DHT22;17667;45.598;5.214;2023-05-10T12:57:24;24.40;59.00
15578;DHT22;17667;45.598;5.214;2023-05-10T13:00:13;23.80;60.00
15578;DHT22;17667;45.598;5.214;2023-05-10T13:03:01;23.30;61.00
15578;DHT22;17667;45.598;5.214;2023-05-10T13:05:50;22.70;61.90
15578;DHT22;17667;45.598;5.214;2023-05-10T13:08:37;22.40;62.50
15578;DHT22;17667;45.598;5.214;2023-05-10T13:11:25;22.20;63.40
15578;DHT22;17667;45.598;5.214;2023-05-10T13:14:12;21.80;62.90
15578;DHT22;17667;45.598;5.214;2023-05-10T13:17:00;21.50;59.90
15578;DHT22;17667;45.598;5.214;2023-05-10T13:19:48;21.30;62.10
15578;DHT22;17667;45.598;5.214;2023-05-10T13:22:37;21.20;62.10
15578;DHT22;17667;45.598;5.214;2023-05-10T13:25:25;21.20;64.10
15578;DHT22;17667;45.598;5.214;2023-05-10T13:28:13;21.20;64.00
15578;DHT22;17667;45.598;5.214;2023-05-10T13:31:01;21.20;63.20
15578;DHT22;17667;45.598;5.214;2023-05-10T13:33:49;21.20;64.40
15578;DHT22;17667;45.598;5.214;2023-05-10T13:36:36;21.30;63.90
15578;DHT22;17667;45.598;5.214;2023-05-10T13:39:25;21.50;63.10
15578;DHT22;17667;45.598;5.214;2023-05-10T13:42:16;21.70;61.80
15578;DHT22;17667;45.598;5.214;2023-05-10T13:45:05;21.80;59.00
15578;DHT22;17667;45.598;5.214;2023-05-10T13:47:53;22.00;59.80
15578;DHT22;17667;45.598;5.214;2023-05-10T13:50:40;22.40;59.50
15578;DHT22;17667;45.598;5.214;2023-05-10T13:53:28;22.70;55.90
15578;DHT22;17667;45.598;5.214;2023-05-10T13:56:17;23.10;56.60
15578;DHT22;17667;45.598;5.214;2023-05-10T13:59:04;23.50;55.20
15578;DHT22;17667;45.598;5.214;2023-05-10T14:01:52;23.80;54.10
15578;DHT22;17667;45.598;5.214;2023-05-10T14:04:40;23.90;55.10
15578;DHT22;17667;45.598;5.214;2023-05-10T14:07:28;24.10;53.10
15578;DHT22;17667;45.598;5.214;2023-05-10T14:10:16;24.30;55.00
15578;DHT22;17667;45.598;5.214;2023-05-10T14:13:05;24.40;52.70
15578;DHT22;17667;45.598;5.214;2023-05-10T14:15:53;24.50;56.30
15578;DHT22;17667;45.598;5.214;2023-05-10T14:18:40;24.50;57.50
15578;DHT22;17667;45.598;5.214;2023-05-10T14:21:28;24.40;57.60
15578;DHT22;17667;45.598;5.214;2023-05-10T14:24:16;24.30;57.80
15578;DHT22;17667;45.598;5.214;2023-05-10T14:27:04;24.20;56.70
15578;DHT22;17667;45.598;5.214;2023-05-10T14:29:53;24.20;55.20
15578;DHT22;17667;45.598;5.214;2023-05-10T14:32:41;24.20;57.60
15578;DHT22;17667;45.598;5.214;2023-05-10T14:35:29;24.10;56.70
15578;DHT22;17667;45.598;5.214;2023-05-10T14:38:18;24.10;59.20
15578;DHT22;17667;45.598;5.214;2023-05-10T14:41:05;24.10;55.50
15578;DHT22;17667;45.598;5.214;2023-05-10T14:43:54;24.10;56.10
15578;DHT22;17667;45.598;5.214;2023-05-10T14:46:43;24.00;57.30
15578;DHT22;17667;45.598;5.214;2023-05-10T14:49:31;23.90;56.70
15578;DHT22;17667;45.598;5.214;2023-05-10T14:52:19;23.90;53.30
15578;DHT22;17667;45.598;5.214;2023-05-10T14:55:07;24.00;55.90
15578;DHT22;17667;45.598;5.214;2023-05-10T14:57:55;24.00;55.70
15578;DHT22;17667;45.598;5.214;2023-05-10T15:00:44;23.80;55.80
15578;DHT22;17667;45.598;5.214;2023-05-10T15:03:33;23.70;57.00
15578;DHT22;17667;45.598;5.214;2023-05-10T15:06:23;23.50;58.20
15578;DHT22;17667;45.598;5.214;2023-05-10T15:09:12;23.30;57.90
15578;DHT22;17667;45.598;5.214;2023-05-10T15:12:00;23.00;57.40
15578;DHT22;17667;45.598;5.214;2023-05-10T15:14:47;22.80;58.40
15578;DHT22;17667;45.598;5.214;2023-05-10T15:17:34;22.60;58.30
15578;DHT22;17667;45.598;5.214;2023-05-10T15:20:24;22.40;57.90
15578;DHT22;17667;45.598;5.214;2023-05-10T15:23:11;22.20;59.20
15578;DHT22;17667;45.598;5.214;2023-05-10T15:25:58;22.10;59.10
15578;DHT22;17667;45.598;5.214;2023-05-10T15:28:46;22.00;59.10
15578;DHT22;17667;45.598;5.214;2023-05-10T15:31:33;22.00;58.90
15578;DHT22;17667;45.598;5.214;2023-05-10T15:34:22;22.00;59.00
15578;DHT22;17667;45.598;5.214;2023-05-10T15:37:11;22.00;57.70
15578;DHT22;17667;45.598;5.214;2023-05-10T15:39:58;21.90;58.10
15578;DHT22;17667;45.598;5.214;2023-05-10T15:42:49;21.90;57.80
15578;DHT22;17667;45.598;5.214;2023-05-10T15:45:37;21.90;59.20
15578;DHT22;17667;45.598;5.214;2023-05-10T15:48:25;21.80;58.80
15578;DHT22;17667;45.598;5.214;2023-05-10T15:51:12;21.80;57.90
15578;DHT22;17667;45.598;5.214;2023-05-10T15:54:02;21.80;56.30
15578;DHT22;17667;45.598;5.214;2023-05-10T15:56:53;21.70;57.20
15578;DHT22;17667;45.598;5.214;2023-05-10T15:59:40;21.60;57.20
15578;DHT22;17667;45.598;5.214;2023-05-10T16:02:28;21.50;57.50
15578;DHT22;17667;45.598;5.214;2023-05-10T16:05:16;21.40;58.10
15578;DHT22;17667;45.598;5.214;2023-05-10T16:08:04;21.30;58.70
15578;DHT22;17667;45.598;5.214;2023-05-10T16:10:53;21.20;57.80
15578;DHT22;17667;45.598;5.214;2023-05-10T16:13:40;21.10;57.40
15578;DHT22;17667;45.598;5.214;2023-05-10T16:16:28;21.20;57.90
15578;DHT22;17667;45.598;5.214;2023-05-10T16:19:16;21.20;57.60
15578;DHT22;17667;45.598;5.214;2023-05-10T16:22:04;21.10;56.30
15578;DHT22;17667;45.598;5.214;2023-05-10T16:24:51;21.00;57.60
15578;DHT22;17667;45.598;5.214;2023-05-10T16:27:40;20.90;57.30
15578;DHT22;17667;45.598;5.214;2023-05-10T16:30:31;20.80;58.50
15578;DHT22;17667;45.598;5.214;2023-05-10T16:33:18;20.90;57.70
15578;DHT22;17667;45.598;5.214;2023-05-10T16:36:06;20.90;56.70
15578;DHT22;17667;45.598;5.214;2023-05-10T16:38:54;20.80;56.50
15578;DHT22;17667;45.598;5.214;2023-05-10T16:41:41;20.80;57.10
15578;DHT22;17667;45.598;5.214;2023-05-10T16:44:30;20.80;57.20
15578;DHT22;17667;45.598;5.214;2023-05-10T16:47:18;20.70;56.20
15578;DHT22;17667;45.598;5.214;2023-05-10T16:50:06;20.60;57.30
15578;DHT22;17667;45.598;5.214;2023-05-10T16:52:54;20.50;58.50
15578;DHT22;17667;45.598;5.214;2023-05-10T16:55:42;20.50;59.00
15578;DHT22;17667;45.598;5.214;2023-05-10T16:58:30;20.40;58.40
15578;DHT22;17667;45.598;5.214;2023-05-10T17:01:19;20.20;58.60
15578;DHT22;17667;45.598;5.214;2023-05-10T17:04:07;20.10;58.80
15578;DHT22;17667;45.598;5.214;2023-05-10T17:06:55;20.00;59.20
15578;DHT22;17667;45.598;5.214;2023-05-10T17:09:43;19.90;58.70
15578;DHT22;17667;45.598;5.214;2023-05-10T17:12:31;19.90;58.90
15578;DHT22;17667;45.598;5.214;2023-05-10T17:15:19;19.90;59.30
15578;DHT22;17667;45.598;5.214;2023-05-10T17:18:08;19.80;59.40
15578;DHT22;17667;45.598;5.214;2023-05-10T17:20:56;19.70;60.10
15578;DHT22;17667;45.598;5.214;2023-05-10T17:23:44;19.60;59.90
15578;DHT22;17667;45.598;5.214;2023-05-10T17:26:31;19.50;59.00
15578;DHT22;17667;45.598;5.214;2023-05-10T17:29:19;19.40;60.10
15578;DHT22;17667;45.598;5.214;2023-05-10T17:32:07;19.40;59.60
15578;DHT22;17667;45.598;5.214;2023-05-10T17:34:56;19.20;60.60
15578;DHT22;17667;45.598;5.214;2023-05-10T17:37:44;19.20;60.00
15578;DHT22;17667;45.598;5.214;2023-05-10T17:40:32;19.00;59.10
15578;DHT22;17667;45.598;5.214;2023-05-10T17:43:19;18.90;59.90
15578;DHT22;17667;45.598;5.214;2023-05-10T17:46:08;18.70;60.80
15578;DHT22;17667;45.598;5.214;2023-05-10T17:48:56;18.60;60.10